Able — 3FHH2 — position and weather

sailwx.info

Track history (hours):
 
Tides and Currents Weather Stations Pressure Air Temp Water Temp Dewpoint Dewpoint Depression Visibility Wind Speed Wind Dir Waves Ship Positions

Able

Last reported at 2018-Feb-18 01:39 UTC. Time now 2018-Feb-22 01:09 UTC.
Position N 43°34' E 028°51'.

Length 114 m; draft 7.2 m.

Type: Cargo ship. MMSI: 374712000.

Date/timePositionNaut miles runAvg speedWind from/ knotsBaromVisibWave heightAir tempDewpointWater temp
2018-Feb-18 01:39N 43°34' E 028°51'1 9.1
2018-Feb-18 01:30N 43°35' E 028°51'4 8.8
2018-Feb-18 01:00N 43°39' E 028°51'4 9.0
2018-Feb-18 00:30N 43°44' E 028°50'5 9.3
2018-Feb-18 00:00N 43°48' E 028°50'5 9.4
2018-Feb-17 23:30N 43°53' E 028°49'5 9.1
2018-Feb-17 23:00N 43°58' E 028°48'5 9.5
2018-Feb-17 22:30N 44°02' E 028°45'4 8.7
2018-Feb-17 22:00N 44°06' E 028°42'3 7.1
2018-Feb-17 21:30N 44°09' E 028°40'2 3.0
2018-Feb-17 21:00N 44°10' E 028°39'0 0.0
2018-Feb-17 20:30N 44°10' E 028°39'0 0.0
2018-Feb-17 20:00N 44°10' E 028°39'0 0.0
2018-Feb-17 19:30N 44°10' E 028°39'0 0.0
2018-Feb-17 18:57N 44°10' E 028°39'0 0.0
2018-Feb-17 18:30N 44°10' E 028°39'0 0.0
2018-Feb-17 18:00N 44°10' E 028°39'0 0.0
2018-Feb-17 17:30N 44°10' E 028°39'0 0.0
2018-Feb-17 17:00N 44°10' E 028°39'0 0.0
2018-Feb-17 16:30N 44°10' E 028°39'0 0.0
2018-Feb-17 16:00N 44°10' E 028°39'0 0.1
2018-Feb-17 15:30N 44°10' E 028°39'0 0.1
2018-Feb-17 15:00N 44°10' E 028°39'0 0.0
2018-Feb-17 14:30N 44°10' E 028°39'0 0.0
2018-Feb-17 14:00N 44°10' E 028°39'0 0.0
2018-Feb-17 13:30N 44°10' E 028°39'0 0.0
2018-Feb-17 13:00N 44°10' E 028°39'0 0.0
2018-Feb-17 12:30N 44°10' E 028°39'0 0.0
2018-Feb-17 12:00N 44°10' E 028°39'0 0.0
2018-Feb-17 11:30N 44°10' E 028°39'0 0.0
2018-Feb-17 11:00N 44°10' E 028°39'0 0.0
2018-Feb-17 10:30N 44°10' E 028°39'0 0.0
2018-Feb-17 10:00N 44°10' E 028°39'0 0.0
2018-Feb-17 09:30N 44°10' E 028°39'0 0.0
2018-Feb-17 09:00N 44°10' E 028°39'0 0.0
2018-Feb-17 08:28N 44°10' E 028°39'0 0.0
2018-Feb-17 07:58N 44°10' E 028°39'0 0.0
2018-Feb-17 07:28N 44°10' E 028°39'0 0.0
2018-Feb-17 06:58N 44°10' E 028°39'0 0.0
2018-Feb-17 06:28N 44°10' E 028°39'0 0.0
2018-Feb-17 05:58N 44°10' E 028°39'0 0.0
2018-Feb-17 05:28N 44°10' E 028°39'0 0.0
2018-Feb-17 04:58N 44°10' E 028°39'0 0.0
2018-Feb-17 04:28N 44°10' E 028°39'0 0.0
2018-Feb-17 03:58N 44°10' E 028°39'0 0.0
2018-Feb-17 03:25N 44°10' E 028°39'0 0.0
2018-Feb-17 02:58N 44°10' E 028°39'0 0.0
2018-Feb-17 02:28N 44°10' E 028°39'0 0.0
2018-Feb-17 01:58N 44°10' E 028°39'0 0.0
2018-Feb-17 01:28N 44°10' E 028°39'0 0.0
2018-Feb-17 00:58N 44°10' E 028°39'0 0.0
2018-Feb-17 00:28N 44°10' E 028°39'0 0.0
2018-Feb-16 23:58N 44°10' E 028°39'0 0.0
2018-Feb-16 23:28N 44°10' E 028°39'0 0.0
2018-Feb-16 22:58N 44°10' E 028°39'0 0.0
2018-Feb-16 22:28N 44°10' E 028°39'0 0.0
2018-Feb-16 21:58N 44°10' E 028°39'0 0.0
2018-Feb-16 21:28N 44°10' E 028°39'0 0.0
2018-Feb-16 20:58N 44°10' E 028°39'0 0.1
2018-Feb-16 20:28N 44°10' E 028°39'1 1.9
2018-Feb-16 20:01N 44°09' E 028°39'0 0.6
2018-Feb-16 19:30N 44°09' E 028°39'0 0.0
2018-Feb-16 19:00N 44°09' E 028°39'0 0.0
2018-Feb-16 18:30N 44°09' E 028°39'0 0.0
2018-Feb-16 18:00N 44°09' E 028°39'0 0.0
2018-Feb-16 17:30N 44°09' E 028°39'0 0.0
2018-Feb-16 17:00N 44°09' E 028°39'0 0.0
2018-Feb-16 16:24N 44°09' E 028°39'0 0.0
2018-Feb-16 16:00N 44°09' E 028°39'0 0.0
2018-Feb-16 15:27N 44°09' E 028°39'0 0.0
2018-Feb-16 15:00N 44°09' E 028°39'0 0.0
2018-Feb-16 14:30N 44°09' E 028°39'0 0.0
2018-Feb-16 14:00N 44°09' E 028°39'0 0.0
2018-Feb-16 13:30N 44°09' E 028°39'0 0.0
2018-Feb-16 13:00N 44°09' E 028°39'0 0.0
2018-Feb-16 12:30N 44°09' E 028°39'0 0.0
2018-Feb-16 12:00N 44°09' E 028°39'0 0.0
2018-Feb-16 11:30N 44°09' E 028°39'0 0.0
2018-Feb-16 11:00N 44°09' E 028°39'0 0.0
2018-Feb-16 10:30N 44°09' E 028°39'0 0.0
2018-Feb-16 10:00N 44°09' E 028°39'0 0.0
2018-Feb-16 09:27N 44°09' E 028°39'0 0.0
2018-Feb-16 09:00N 44°09' E 028°39'0 0.0
2018-Feb-16 08:30N 44°09' E 028°39'0 0.0
2018-Feb-16 08:00N 44°09' E 028°39'0 0.0
2018-Feb-16 07:30N 44°09' E 028°39'0 0.0
2018-Feb-16 07:00N 44°09' E 028°39'0 0.0
2018-Feb-16 06:30N 44°09' E 028°39'0 0.0
2018-Feb-16 06:00N 44°09' E 028°39'0 0.0
2018-Feb-16 05:30N 44°09' E 028°39'0 0.0
2018-Feb-16 04:54N 44°09' E 028°39'0 0.0
2018-Feb-16 04:30N 44°09' E 028°39'0 0.0
2018-Feb-16 04:00N 44°09' E 028°39'0 0.0
2018-Feb-16 03:30N 44°09' E 028°39'0 0.0
2018-Feb-16 03:00N 44°09' E 028°39'0 0.0
2018-Feb-16 02:30N 44°09' E 028°39'0 0.0
2018-Feb-16 02:00N 44°09' E 028°39'0 0.0
2018-Feb-16 01:30N 44°09' E 028°39'0 0.0
2018-Feb-16 01:00N 44°09' E 028°39'0 0.0
2018-Feb-16 00:30N 44°09' E 028°39'0 0.0
2018-Feb-15 23:57N 44°09' E 028°39'0 0.0
2018-Feb-15 23:30N 44°09' E 028°39'0 0.0
2018-Feb-15 23:00N 44°09' E 028°39'0 0.0
2018-Feb-15 22:30N 44°09' E 028°39'0 0.0
2018-Feb-15 22:00N 44°09' E 028°39'0 0.0
2018-Feb-15 21:30N 44°09' E 028°39'0 0.0
2018-Feb-15 21:00N 44°09' E 028°39'0 0.0
2018-Feb-15 20:30N 44°09' E 028°39'0 0.0
2018-Feb-15 20:00N 44°09' E 028°39'0 0.0
2018-Feb-15 19:30N 44°09' E 028°39'0 0.0
2018-Feb-15 19:00N 44°09' E 028°39'0 0.0
2018-Feb-15 18:30N 44°09' E 028°39'0 0.0
2018-Feb-15 18:00N 44°09' E 028°39'0 0.0
2018-Feb-15 17:30N 44°09' E 028°39'0 0.0
2018-Feb-15 17:00N 44°09' E 028°39'0 0.0
2018-Feb-15 16:30N 44°09' E 028°39'0 0.0
2018-Feb-15 16:00N 44°09' E 028°39'0 0.0
2018-Feb-15 15:30N 44°09' E 028°39'0 0.0
2018-Feb-15 15:00N 44°09' E 028°39'0 0.0
2018-Feb-15 14:30N 44°09' E 028°39'0 0.0
2018-Feb-15 14:00N 44°09' E 028°39'0 0.0
2018-Feb-15 13:30N 44°09' E 028°39'0 0.0
2018-Feb-15 13:00N 44°09' E 028°39'0 0.0
2018-Feb-15 12:30N 44°09' E 028°39'0 0.0
2018-Feb-15 12:00N 44°09' E 028°39'0 0.0
2018-Feb-15 11:30N 44°09' E 028°39'0 0.0
2018-Feb-15 11:00N 44°09' E 028°39'0 0.0
2018-Feb-15 10:30N 44°09' E 028°39'0 0.0
2018-Feb-15 10:00N 44°09' E 028°39'0 0.0
2018-Feb-15 09:30N 44°09' E 028°39'0 0.0
2018-Feb-15 09:00N 44°09' E 028°39'0 0.0
2018-Feb-15 08:27N 44°09' E 028°39'0 0.0
2018-Feb-15 08:00N 44°09' E 028°39'0 0.0
2018-Feb-15 07:30N 44°09' E 028°39'0 0.0
2018-Feb-15 07:00N 44°09' E 028°39'0 0.0
2018-Feb-15 06:24N 44°09' E 028°39'0 0.0
2018-Feb-15 06:00N 44°09' E 028°39'0 0.0
2018-Feb-15 05:30N 44°09' E 028°39'0 0.0
2018-Feb-15 05:00N 44°09' E 028°39'0 0.0
2018-Feb-15 04:30N 44°09' E 028°39'0 0.0
2018-Feb-15 03:57N 44°09' E 028°39'0 0.0
2018-Feb-15 03:30N 44°09' E 028°39'0 0.0
2018-Feb-15 03:00N 44°09' E 028°39'0 0.0
2018-Feb-15 02:30N 44°09' E 028°39'0 0.0
2018-Feb-15 02:00N 44°09' E 028°39'0 0.0
2018-Feb-15 01:30N 44°09' E 028°39'0 0.0
2018-Feb-15 01:00N 44°09' E 028°39'0 0.0
2018-Feb-15 00:30N 44°09' E 028°39'0 0.0
2018-Feb-15 00:00N 44°09' E 028°39'0 0.0
2018-Feb-14 23:30N 44°09' E 028°39'0 0.0
2018-Feb-14 23:00N 44°09' E 028°39'0 0.4
2018-Feb-14 22:30N 44°09' E 028°40'1 2.2
2018-Feb-14 22:00N 44°08' E 028°41'2 4.8
2018-Feb-14 21:30N 44°06' E 028°42'2 4.2
2018-Feb-14 21:00N 44°06' E 028°45'1 2.5
2018-Feb-14 20:28N 44°07' E 028°46'0 0.0
2018-Feb-14 19:58N 44°07' E 028°46'0 0.0
2018-Feb-14 19:28N 44°07' E 028°46'0 0.0
2018-Feb-14 18:58N 44°07' E 028°46'0 0.0
2018-Feb-14 18:28N 44°07' E 028°46'0 0.0
2018-Feb-14 17:58N 44°07' E 028°46'0 0.0
2018-Feb-14 17:28N 44°07' E 028°46'0 0.0
2018-Feb-14 16:58N 44°07' E 028°46'0 0.0
2018-Feb-14 16:28N 44°07' E 028°46'0 0.0
2018-Feb-14 15:58N 44°07' E 028°46'0 0.1
2018-Feb-14 15:28N 44°07' E 028°46'0 0.0
2018-Feb-14 14:58N 44°07' E 028°46'0 0.0
2018-Feb-14 14:28N 44°07' E 028°46'0 0.0
2018-Feb-14 13:58N 44°07' E 028°46'0 0.0
2018-Feb-14 13:28N 44°07' E 028°46'0 0.0
2018-Feb-14 12:58N 44°07' E 028°46'0 0.1
2018-Feb-14 12:28N 44°07' E 028°46'0 0.1
2018-Feb-14 11:58N 44°07' E 028°46'0 0.0
2018-Feb-14 11:28N 44°07' E 028°46'0 0.0
2018-Feb-14 10:58N 44°07' E 028°46'0 0.0
2018-Feb-14 10:28N 44°07' E 028°46'0 0.0
2018-Feb-14 09:58N 44°07' E 028°46'0 0.0
2018-Feb-14 09:28N 44°07' E 028°46'0 0.1
2018-Feb-14 08:58N 44°07' E 028°46'0 0.0
2018-Feb-14 08:30N 44°07' E 028°46'2 3.8
2018-Feb-14 08:00N 44°06' E 028°47'511.0
2018-Feb-14 07:30N 44°01' E 028°50'611.1
2018-Feb-14 07:00N 43°58' E 028°57'611.3
2018-Feb-14 06:30N 43°56' E 029°04'611.5
2018-Feb-14 06:00N 43°53' E 029°12'611.5
2018-Feb-14 05:30N 43°51' E 029°19'611.3
2018-Feb-14 05:00N 43°49' E 029°26'611.1
2018-Feb-14 04:30N 43°47' E 029°33'  
Track history (hours):
 
Tides and Currents Weather Stations Pressure Air Temp Water Temp Dewpoint Dewpoint Depression Visibility Wind Speed Wind Dir Waves Ship Positions

Able

Last reported at 2018-Feb-18 01:39 UTC. Time now 2018-Feb-22 01:09 UTC.
Position N 43°34' E 028°51'.

Length 114 m; draft 7.2 m.

Type: Cargo ship. MMSI: 374712000.

Date/timePositionNaut miles runAvg speedWind from/ knotsBaromVisibWave heightAir tempDewpointWater temp
2018-Feb-18 01:39N 43°34' E 028°51'1 9.1
2018-Feb-18 01:30N 43°35' E 028°51'4 8.8
2018-Feb-18 01:00N 43°39' E 028°51'4 9.0
2018-Feb-18 00:30N 43°44' E 028°50'5 9.3
2018-Feb-18 00:00N 43°48' E 028°50'5 9.4
2018-Feb-17 23:30N 43°53' E 028°49'5 9.1
2018-Feb-17 23:00N 43°58' E 028°48'5 9.5
2018-Feb-17 22:30N 44°02' E 028°45'4 8.7
2018-Feb-17 22:00N 44°06' E 028°42'3 7.1
2018-Feb-17 21:30N 44°09' E 028°40'2 3.0
2018-Feb-17 21:00N 44°10' E 028°39'0 0.0
2018-Feb-17 20:30N 44°10' E 028°39'0 0.0
2018-Feb-17 20:00N 44°10' E 028°39'0 0.0
2018-Feb-17 19:30N 44°10' E 028°39'0 0.0
2018-Feb-17 18:57N 44°10' E 028°39'0 0.0
2018-Feb-17 18:30N 44°10' E 028°39'0 0.0
2018-Feb-17 18:00N 44°10' E 028°39'0 0.0
2018-Feb-17 17:30N 44°10' E 028°39'0 0.0
2018-Feb-17 17:00N 44°10' E 028°39'0 0.0
2018-Feb-17 16:30N 44°10' E 028°39'0 0.0
2018-Feb-17 16:00N 44°10' E 028°39'0 0.1
2018-Feb-17 15:30N 44°10' E 028°39'0 0.1
2018-Feb-17 15:00N 44°10' E 028°39'0 0.0
2018-Feb-17 14:30N 44°10' E 028°39'0 0.0
2018-Feb-17 14:00N 44°10' E 028°39'0 0.0
2018-Feb-17 13:30N 44°10' E 028°39'0 0.0
2018-Feb-17 13:00N 44°10' E 028°39'0 0.0
2018-Feb-17 12:30N 44°10' E 028°39'0 0.0
2018-Feb-17 12:00N 44°10' E 028°39'0 0.0
2018-Feb-17 11:30N 44°10' E 028°39'0 0.0
2018-Feb-17 11:00N 44°10' E 028°39'0 0.0
2018-Feb-17 10:30N 44°10' E 028°39'0 0.0
2018-Feb-17 10:00N 44°10' E 028°39'0 0.0
2018-Feb-17 09:30N 44°10' E 028°39'0 0.0
2018-Feb-17 09:00N 44°10' E 028°39'0 0.0
2018-Feb-17 08:28N 44°10' E 028°39'0 0.0
2018-Feb-17 07:58N 44°10' E 028°39'0 0.0
2018-Feb-17 07:28N 44°10' E 028°39'0 0.0
2018-Feb-17 06:58N 44°10' E 028°39'0 0.0
2018-Feb-17 06:28N 44°10' E 028°39'0 0.0
2018-Feb-17 05:58N 44°10' E 028°39'0 0.0
2018-Feb-17 05:28N 44°10' E 028°39'0 0.0
2018-Feb-17 04:58N 44°10' E 028°39'0 0.0
2018-Feb-17 04:28N 44°10' E 028°39'0 0.0
2018-Feb-17 03:58N 44°10' E 028°39'0 0.0
2018-Feb-17 03:25N 44°10' E 028°39'0 0.0
2018-Feb-17 02:58N 44°10' E 028°39'0 0.0
2018-Feb-17 02:28N 44°10' E 028°39'0 0.0
2018-Feb-17 01:58N 44°10' E 028°39'0 0.0
2018-Feb-17 01:28N 44°10' E 028°39'0 0.0
2018-Feb-17 00:58N 44°10' E 028°39'0 0.0
2018-Feb-17 00:28N 44°10' E 028°39'0 0.0
2018-Feb-16 23:58N 44°10' E 028°39'0 0.0
2018-Feb-16 23:28N 44°10' E 028°39'0 0.0
2018-Feb-16 22:58N 44°10' E 028°39'0 0.0
2018-Feb-16 22:28N 44°10' E 028°39'0 0.0
2018-Feb-16 21:58N 44°10' E 028°39'0 0.0
2018-Feb-16 21:28N 44°10' E 028°39'0 0.0
2018-Feb-16 20:58N 44°10' E 028°39'0 0.1
2018-Feb-16 20:28N 44°10' E 028°39'1 1.9
2018-Feb-16 20:01N 44°09' E 028°39'0 0.6
2018-Feb-16 19:30N 44°09' E 028°39'0 0.0
2018-Feb-16 19:00N 44°09' E 028°39'0 0.0
2018-Feb-16 18:30N 44°09' E 028°39'0 0.0
2018-Feb-16 18:00N 44°09' E 028°39'0 0.0
2018-Feb-16 17:30N 44°09' E 028°39'0 0.0
2018-Feb-16 17:00N 44°09' E 028°39'0 0.0
2018-Feb-16 16:24N 44°09' E 028°39'0 0.0
2018-Feb-16 16:00N 44°09' E 028°39'0 0.0
2018-Feb-16 15:27N 44°09' E 028°39'0 0.0
2018-Feb-16 15:00N 44°09' E 028°39'0 0.0
2018-Feb-16 14:30N 44°09' E 028°39'0 0.0
2018-Feb-16 14:00N 44°09' E 028°39'0 0.0
2018-Feb-16 13:30N 44°09' E 028°39'0 0.0
2018-Feb-16 13:00N 44°09' E 028°39'0 0.0
2018-Feb-16 12:30N 44°09' E 028°39'0 0.0
2018-Feb-16 12:00N 44°09' E 028°39'0 0.0
2018-Feb-16 11:30N 44°09' E 028°39'0 0.0
2018-Feb-16 11:00N 44°09' E 028°39'0 0.0
2018-Feb-16 10:30N 44°09' E 028°39'0 0.0
2018-Feb-16 10:00N 44°09' E 028°39'0 0.0
2018-Feb-16 09:27N 44°09' E 028°39'0 0.0
2018-Feb-16 09:00N 44°09' E 028°39'0 0.0
2018-Feb-16 08:30N 44°09' E 028°39'0 0.0
2018-Feb-16 08:00N 44°09' E 028°39'0 0.0
2018-Feb-16 07:30N 44°09' E 028°39'0 0.0
2018-Feb-16 07:00N 44°09' E 028°39'0 0.0
2018-Feb-16 06:30N 44°09' E 028°39'0 0.0
2018-Feb-16 06:00N 44°09' E 028°39'0 0.0
2018-Feb-16 05:30N 44°09' E 028°39'0 0.0
2018-Feb-16 04:54N 44°09' E 028°39'0 0.0
2018-Feb-16 04:30N 44°09' E 028°39'0 0.0
2018-Feb-16 04:00N 44°09' E 028°39'0 0.0
2018-Feb-16 03:30N 44°09' E 028°39'0 0.0
2018-Feb-16 03:00N 44°09' E 028°39'0 0.0
2018-Feb-16 02:30N 44°09' E 028°39'0 0.0
2018-Feb-16 02:00N 44°09' E 028°39'0 0.0
2018-Feb-16 01:30N 44°09' E 028°39'0 0.0
2018-Feb-16 01:00N 44°09' E 028°39'0 0.0
2018-Feb-16 00:30N 44°09' E 028°39'0 0.0
2018-Feb-15 23:57N 44°09' E 028°39'0 0.0
2018-Feb-15 23:30N 44°09' E 028°39'0 0.0
2018-Feb-15 23:00N 44°09' E 028°39'0 0.0
2018-Feb-15 22:30N 44°09' E 028°39'0 0.0
2018-Feb-15 22:00N 44°09' E 028°39'0 0.0
2018-Feb-15 21:30N 44°09' E 028°39'0 0.0
2018-Feb-15 21:00N 44°09' E 028°39'0 0.0
2018-Feb-15 20:30N 44°09' E 028°39'0 0.0
2018-Feb-15 20:00N 44°09' E 028°39'0 0.0
2018-Feb-15 19:30N 44°09' E 028°39'0 0.0
2018-Feb-15 19:00N 44°09' E 028°39'0 0.0
2018-Feb-15 18:30N 44°09' E 028°39'0 0.0
2018-Feb-15 18:00N 44°09' E 028°39'0 0.0
2018-Feb-15 17:30N 44°09' E 028°39'0 0.0
2018-Feb-15 17:00N 44°09' E 028°39'0 0.0
2018-Feb-15 16:30N 44°09' E 028°39'0 0.0
2018-Feb-15 16:00N 44°09' E 028°39'0 0.0
2018-Feb-15 15:30N 44°09' E 028°39'0 0.0
2018-Feb-15 15:00N 44°09' E 028°39'0 0.0
2018-Feb-15 14:30N 44°09' E 028°39'0 0.0
2018-Feb-15 14:00N 44°09' E 028°39'0 0.0
2018-Feb-15 13:30N 44°09' E 028°39'0 0.0
2018-Feb-15 13:00N 44°09' E 028°39'0 0.0
2018-Feb-15 12:30N 44°09' E 028°39'0 0.0
2018-Feb-15 12:00N 44°09' E 028°39'0 0.0
2018-Feb-15 11:30N 44°09' E 028°39'0 0.0
2018-Feb-15 11:00N 44°09' E 028°39'0 0.0
2018-Feb-15 10:30N 44°09' E 028°39'0 0.0
2018-Feb-15 10:00N 44°09' E 028°39'0 0.0
2018-Feb-15 09:30N 44°09' E 028°39'0 0.0
2018-Feb-15 09:00N 44°09' E 028°39'0 0.0
2018-Feb-15 08:27N 44°09' E 028°39'0 0.0
2018-Feb-15 08:00N 44°09' E 028°39'0 0.0
2018-Feb-15 07:30N 44°09' E 028°39'0 0.0
2018-Feb-15 07:00N 44°09' E 028°39'0 0.0
2018-Feb-15 06:24N 44°09' E 028°39'0 0.0
2018-Feb-15 06:00N 44°09' E 028°39'0 0.0
2018-Feb-15 05:30N 44°09' E 028°39'0 0.0
2018-Feb-15 05:00N 44°09' E 028°39'0 0.0
2018-Feb-15 04:30N 44°09' E 028°39'0 0.0
2018-Feb-15 03:57N 44°09' E 028°39'0 0.0
2018-Feb-15 03:30N 44°09' E 028°39'0 0.0
2018-Feb-15 03:00N 44°09' E 028°39'0 0.0
2018-Feb-15 02:30N 44°09' E 028°39'0 0.0
2018-Feb-15 02:00N 44°09' E 028°39'0 0.0
2018-Feb-15 01:30N 44°09' E 028°39'0 0.0
2018-Feb-15 01:00N 44°09' E 028°39'0 0.0
2018-Feb-15 00:30N 44°09' E 028°39'0 0.0
2018-Feb-15 00:00N 44°09' E 028°39'0 0.0
2018-Feb-14 23:30N 44°09' E 028°39'0 0.0
2018-Feb-14 23:00N 44°09' E 028°39'0 0.4
2018-Feb-14 22:30N 44°09' E 028°40'1 2.2
2018-Feb-14 22:00N 44°08' E 028°41'2 4.8
2018-Feb-14 21:30N 44°06' E 028°42'2 4.2
2018-Feb-14 21:00N 44°06' E 028°45'1 2.5
2018-Feb-14 20:28N 44°07' E 028°46'0 0.0
2018-Feb-14 19:58N 44°07' E 028°46'0 0.0
2018-Feb-14 19:28N 44°07' E 028°46'0 0.0
2018-Feb-14 18:58N 44°07' E 028°46'0 0.0
2018-Feb-14 18:28N 44°07' E 028°46'0 0.0
2018-Feb-14 17:58N 44°07' E 028°46'0 0.0
2018-Feb-14 17:28N 44°07' E 028°46'0 0.0
2018-Feb-14 16:58N 44°07' E 028°46'0 0.0
2018-Feb-14 16:28N 44°07' E 028°46'0 0.0
2018-Feb-14 15:58N 44°07' E 028°46'0 0.1
2018-Feb-14 15:28N 44°07' E 028°46'0 0.0
2018-Feb-14 14:58N 44°07' E 028°46'0 0.0
2018-Feb-14 14:28N 44°07' E 028°46'0 0.0
2018-Feb-14 13:58N 44°07' E 028°46'0 0.0
2018-Feb-14 13:28N 44°07' E 028°46'0 0.0
2018-Feb-14 12:58N 44°07' E 028°46'0 0.1
2018-Feb-14 12:28N 44°07' E 028°46'0 0.1
2018-Feb-14 11:58N 44°07' E 028°46'0 0.0
2018-Feb-14 11:28N 44°07' E 028°46'0 0.0
2018-Feb-14 10:58N 44°07' E 028°46'0 0.0
2018-Feb-14 10:28N 44°07' E 028°46'0 0.0
2018-Feb-14 09:58N 44°07' E 028°46'0 0.0
2018-Feb-14 09:28N 44°07' E 028°46'0 0.1
2018-Feb-14 08:58N 44°07' E 028°46'0 0.0
2018-Feb-14 08:30N 44°07' E 028°46'2 3.8
2018-Feb-14 08:00N 44°06' E 028°47'511.0
2018-Feb-14 07:30N 44°01' E 028°50'611.1
2018-Feb-14 07:00N 43°58' E 028°57'611.3
2018-Feb-14 06:30N 43°56' E 029°04'611.5
2018-Feb-14 06:00N 43°53' E 029°12'611.5
2018-Feb-14 05:30N 43°51' E 029°19'611.3
2018-Feb-14 05:00N 43°49' E 029°26'611.1
2018-Feb-14 04:30N 43°47' E 029°33'  

Dump ship's entire track history